Pagina principale
METAR-TAF:

METAR-TAF

Aeroporti :

Biserta, Tunisia

latitudine: 37-15N, longitudine: 009-48E, altezza: 5 m

Osservazione

Il bollettino è stato emesso 19 minuti fa, alle 17:00 UTC
Vento 11 kt da est/nord-est, variando fra nord-est e est
Temperature 30°C
Umidità 66%
Pressione 1013 hPa
Visibilità 10 km o più
nessuna nube inferiore a 1500 m e nessun cumulonembo

METAR: DTTB 191700Z 06011KT 040V100 CAVOK 30/23 Q1013

Ora: 18:19 (17:19 UTC)

Previsione

Il bollettino è stato emesso 2 ore e 19 minuti fa, alle 15:00 UTC
Previsione valida dal 19 alle 16 UTC al 20 alle 01 UTC
Vento 16 kt da est/nord-est
Visibilità 10 km o più
Poco nuvoloso ad un'altezza di 2000 ft

TAF: DTTB 191500Z 1916/2001 06016KT 9999 FEW020

Osservazioni e previsioni meteorologiche di più di 4000 aeroporti (messaggi METAR e TAF).

Le stazioni disponibili sono rappresentate dai dischi gialli e rossi sulla carta.

Puntare il mouse per vedere il nome della stazione.

Clicca sopra per visualizzare le osservazioni e previsioni meteorologiche.

Per cambiare la mappa : fare clic sui pulsanti verdi con una croce nera per ingrandire, il pulsante verde con un trattino per diminuire, o sulla freccia verde per le mappe adiacenti.


METAR-TAF: